Australia's Leading Digital Marketing Experts. T. 1300 235 433  |  Aggreagtion Enquires Welcome

ARFOR WordPress Shortcode Example

This page is used to demonstrate the ARFOR feature of the Metar WordPress plugin.

BANKSTOWN YSBK

TAF YSBK 141048Z 1412/1500
29007KT CAVOK
RMK FM141200 MOD TURB BLW 5000FT
T 11 09 08 09 Q 1015 1014 1013 1013

METAR YSBK 141600Z AUTO 28005KT //// // NCD 09/05 Q1014 RMK
RF00.0////./

BATHURST YBTH

TAF AMD YBTH 141543Z 1415/1502
26010KT 9999 SCT040
BECMG 1422/1500 25016G26KT 9999 BKN030
TEMPO 1418/1500 9999 BKN015
RMK FM141500 MOD TURB BLW 5000FT
T 07 04 04 07 Q 1016 1015 1015 1015

METAR YBTH 141600Z AUTO 27009KT 9999 // BKN047 07/04 Q1016 RMK
RF00.0/000.0

CAMDEN YSCN

TAF AMD YSCN 141113Z 1412/1500
27005KT CAVOK
RMK FM141200 MOD TURB BLW 5000FT TL142200
FM142200 SEV TURB BLW 5000FT
T 10 08 08 07 Q 1015 1013 1013 1013

METAR YSCN 141600Z AUTO 00000KT 9999 // NCD 06/04 Q1013 RMK
RF00.0/000.0

CANBERRA YSCB

TAF YSCB 141401Z 1415/1512
32011KT 9999 SCT050
FM141600 31012KT 9999 BKN025
FM142100 30014KT 9999 -SHRA BKN025
FM150000 28016KT CAVOK
FM150800 28010KT CAVOK
RMK FM141500 MOD TURB BLW 5000FT TL141900
FM141900 SEV TURB BLW 5000FT TL142300
FM142300 MOD TURB BLW 5000FT TL150100
T 05 04 04 08 Q 1013 1012 1011 1012
TAF3

METAR YSCB 141600Z AUTO 33013KT 9999 // SCT041 SCT047 OVC062 07/04 Q1013
RMK RF00.0/000.0

COOMA YCOM

TAF AMD YCOM 141313Z 1414/1502
29010KT 9999 -SHRA SCT035
BECMG 1423/1501 23020G30KT 9999 NSW FEW040
INTER 1419/1423 VRB20G30KT 4000 SHRA BKN005 BKN025
RMK FM141800 MOD TURB BLW 5000FT
FM141900 SEV TURB BLW 5000FT TL142300
FM142300 MOD TURB BLW 5000FT TL150100
T 03 02 02 04 Q 1011 1009 1008 1010

METAR YCOM 141600Z AUTO 31009KT 9999 // BKN044 OVC052 06/M01 Q1010
RMK RF00.0/000.0

COOTAMUNDRA YCTM

Nil current TAF.

METAR/SPECI observations are not generated for this location.

COWRA YCWR

Nil current TAF.

METAR YCWR 141600Z AUTO 35005KT //// // ////// 07/07 Q1016 RMK
RF00.0/000.0

FORBES YFBS

Nil current TAF.

METAR YFBS 141600Z AUTO 27004KT //// // ////// 11/06 Q1017 RMK
RF00.0/000.0

GOULBURN YGLB

TAF AMD YGLB 140606Z 1406/1408
27017G27KT 9999 BKN035
RMK FM140600 MOD TURB BLW 5000FT
T 10 Q 1014

METAR YGLB 141600Z AUTO 29007KT 9999 // NCD 04/03 Q1014 RMK
RF00.0/000.0

HOLSWORTHY YSHW

TAF AMD YSHW 141113Z 1412/1500
28007KT CAVOK
RMK FM141200 MOD TURB BLW 5000FT TL142200
FM142200 SEV TURB BLW 5000FT
T 11 08 08 08 Q 1015 1013 1013 1013

METAR YSHW 141600Z AUTO 30004KT 9999 // NCD 09/04 Q1013 RMK
RF00.0/000.0

LORD HOWE ISLAND YLHI

TAF AMD YLHI 141120Z 1412/1512
25014KT 9999 SCT030
BECMG 1418/1420 28014KT 9999 -SHRA FEW020 SCT030
FM150200 28014KT 9999 NSW SCT035
FM150900 27014KT 9999 -SHRA FEW020 SCT030
INTER 1418/1500 4000 SHRA BKN018
RMK
T 20 19 19 20 Q 1011 1011 1011 1012

METAR YLHI 141600Z AUTO 20007KT 9999 // NCD 19/18 Q1011 RMK
RF00.0/000.0

MALLACOOTA YMCO

Nil current TAF.

METAR YMCO 141600Z AUTO 32005KT //// // ////// 08/04 Q1008 RMK
RF00.0/000.0

MERIMBULA YMER

TAF AMD YMER 141223Z 1414/1502
28006KT CAVOK
BECMG 1422/1500 25028G38KT 9999 SCT040
RMK FM141400 MOD TURB BLW 5000FT TL141800
FM141800 SEV TURB BLW 5000FT
T 08 08 07 12 Q 1011 1008 1007 1007

METAR YMER 141600Z AUTO 32006KT 9999 // NCD 08/06 Q1009 RMK
RF00.0/000.0

MORUYA YMRY

TAF AMD YMRY 141229Z 1414/1502
27008KT CAVOK
BECMG 1422/1500 24022G32KT CAVOK
RMK FM141400 MOD TURB BLW 5000FT TL141800
FM141800 SEV TURB BLW 5000FT TL150100
FM150100 MOD TURB BLW 5000FT
T 09 10 09 13 Q 1012 1010 1008 1009

METAR YMRY 141600Z AUTO 31006KT 9999 // NCD 11/02 Q1011 RMK
RF00.0/000.0

NORFOLK ISLAND YSNF

TAF AMD YSNF 141408Z 1414/1512
23009KT 9999 BKN015
FM141500 23010KT 9999 SCT015
FM141800 21008KT 9999 SCT015
BECMG 1501/1503 18008KT 9999 SCT020
FM150800 09008KT 9999 SCT020
TEMPO 1414/1415 9999 BKN010
RMK
T 20 19 20 21 Q 1012 1011 1012 1014

METAR YSNF 141600Z AUTO 21007KT 9999 // BKN018 BKN025 BKN031 20/18
Q1011 RMK RF00.0/005.8

NOWRA YSNW

YSNW TAF COR YSNW 141113Z 1412/1500
28014KT CAVOK
RMK FM141200 MOD TURB BLW 5000FT TL141700
FM141700 SEV TURB BLW 5000FT
T 11 11 11 11 Q 1014 1012 1011 1011

METAR YSNW 141600Z AUTO 30014KT 9999 // NCD 11/04 Q1012 RMK
RF00.0////./

ORANGE YORG

TAF AMD YORG 141545Z 1415/1502
26010KT 9999 SCT018 SCT040
FM141800 26012KT 9999 BKN010
BECMG 1422/1500 25018G28KT 9999 BKN015
RMK FM141500 MOD TURB BLW 5000FT
T 06 04 03 07 Q 1016 1015 1015 1016

METAR YORG 141600Z AUTO 25011KT 9999 // BKN019 BKN024 BKN042 05/03
Q1016 RMK RF00.0/000.0

PARKES YPKS

TAF YPKS 140125Z 1402/1414
23013KT 9999 SCT040
FM140700 24008KT 9999 SCT020
RMK
T 13 14 11 09 Q 1017 1016 1017 1018

METAR YPKS 141600Z AUTO 00000KT 9999 // OVC060 09/06 Q1017 RMK
RF00.0/000.0

RICHMOND (NSW) YSRI

TAF YSRI 141106Z 1412/1512
30005KT CAVOK
FM150000 25012KT CAVOK
FM150800 25005KT CAVOK
RMK FM141200 MOD TURB BLW 5000FT
T 09 08 08 08 Q 1015 1014 1013 1013

METAR YSRI 141600Z AUTO 33003KT 9999 // NCD 08/06 Q1014 RMK
RF00.0/000.0

SHELLHARBOUR YSHL

TAF AMD YSHL 141213Z 1412/1502
27014KT CAVOK
FM150000 26018G28KT CAVOK
RMK FM141200 SEV TURB BLW 5000FT TL150000
FM150000 MOD TURB BLW 5000FT
T 13 10 10 09 Q 1014 1012 1011 1011

SPECI YSHL 141600Z AUTO 27017G27KT 9999 // NCD 13/05 Q1012 RMK
RF00.0/000.0

SYDNEY YSSY

TAF YSSY 141403Z 1415/1518
28010KT CAVOK
FM142300 29015G25KT CAVOK
FM150100 26020G30KT CAVOK
FM150900 25014KT CAVOK
RMK FM141500 MOD TURB BLW 5000FT TL151400
T 12 11 11 16 Q 1014 1013 1013 1013
TAF3

METAR YSSY 141600Z 30009KT CAVOK 13/04 Q1013
RMK RF00.0/000.0

TEMORA YTEM

Nil current TAF.

METAR YTEM 141600Z AUTO 31005KT //// // ////// 09/07 Q1016 RMK
RF00.0/000.0

WAGGA WAGGA YSWG

TAF AMD YSWG 141145Z 1412/1500
27008KT 9999 SCT045
FM141400 27012KT 9999 -SHRA SCT030
FM141900 27016KT 9999 -SHRA BKN020
INTER 1421/1500 VRB20G30KT 5000 SHRA BKN010
RMK
T 08 08 08 07 Q 1016 1016 1015 1015

METAR YSWG 141600Z AUTO 30006KT 9999 // SCT035 BKN041 OVC061 09/07
Q1015 RMK RF00.0/000.0

YOUNG YYNG

TAF YYNG 140128Z 1402/1414
25012KT 9999 BKN030
FM140500 25012KT 9999 -SHRA BKN020
FM140800 27006KT 9999 NSW SCT025
RMK
T 12 12 09 07 Q 1016 1015 1016 1017

METAR YYNG 141600Z AUTO 36003KT 9999 // SCT040 SCT046 BKN053 05/05
Q1016 RMK RF00.0/000.0